createdAt,value
2022-11-25T00:04:39.647Z,1.90
2022-11-25T00:09:41.781Z,3.33
2022-11-25T00:14:43.884Z,2.05
2022-11-25T00:19:46.034Z,2.15
2022-11-25T00:24:48.140Z,2.28
2022-11-25T00:29:50.364Z,2.35
2022-11-25T00:34:52.578Z,2.13
2022-11-25T00:39:54.787Z,2.15
2022-11-25T00:44:57.012Z,2.20
2022-11-25T00:49:59.139Z,2.35
2022-11-25T00:55:01.228Z,2.28
2022-11-25T01:00:05.355Z,2.40
2022-11-25T01:05:07.842Z,1.95
2022-11-25T01:10:11.736Z,1.80
2022-11-25T01:15:13.954Z,2.63
2022-11-25T01:20:16.942Z,1.80
2022-11-25T01:25:19.304Z,1.90
2022-11-25T01:30:21.495Z,1.63
2022-11-25T01:35:23.737Z,1.90
2022-11-25T01:40:25.883Z,2.15
2022-11-25T01:45:28.868Z,1.70
2022-11-25T01:50:34.100Z,1.92
2022-11-25T01:55:38.824Z,1.40
2022-11-25T02:00:41.250Z,1.83
2022-11-25T02:05:52.793Z,2.33
2022-11-25T02:10:56.073Z,2.35
2022-11-25T02:15:58.424Z,2.40
2022-11-25T02:21:00.781Z,2.40
2022-11-25T02:26:04.547Z,2.97
2022-11-25T02:31:08.368Z,2.10
2022-11-25T02:36:17.514Z,1.95
2022-11-25T02:41:37.398Z,2.72
2022-11-25T02:46:41.112Z,1.80
2022-11-25T02:51:45.080Z,1.83
2022-11-25T02:56:47.628Z,1.90
2022-11-25T03:01:50.285Z,1.77
2022-11-25T03:06:52.475Z,2.70
2022-11-25T03:12:12.990Z,2.13
2022-11-25T03:17:15.597Z,2.30
2022-11-25T03:22:17.905Z,1.77
2022-11-25T03:27:20.101Z,1.98
2022-11-25T03:32:22.418Z,2.58
2022-11-25T03:37:24.962Z,1.70
2022-11-25T03:42:27.537Z,1.90
2022-11-25T03:47:31.395Z,2.72
2022-11-25T03:52:33.730Z,1.80
2022-11-25T03:57:36.101Z,1.52
2022-11-25T04:02:38.521Z,1.90
2022-11-25T04:07:40.786Z,2.10
2022-11-25T04:12:46.679Z,1.42
2022-11-25T04:17:53.254Z,2.17
2022-11-25T04:22:55.790Z,1.85
2022-11-25T04:27:58.571Z,1.83
2022-11-25T04:33:06.724Z,1.63
2022-11-25T04:38:09.066Z,1.63
2022-11-25T04:43:13.165Z,1.60
2022-11-25T04:48:21.339Z,1.83
2022-11-25T04:53:23.931Z,1.58
2022-11-25T04:58:44.766Z,1.90
2022-11-25T05:03:55.977Z,1.52
2022-11-25T05:09:01.005Z,1.20
2022-11-25T05:14:04.090Z,1.40
2022-11-25T05:19:06.928Z,1.30
2022-11-25T05:24:09.251Z,1.30
2022-11-25T05:29:12.174Z,1.50
2022-11-25T05:34:14.462Z,1.10
2022-11-25T05:39:19.784Z,2.03
2022-11-25T05:44:40.543Z,1.60
2022-11-25T05:49:43.655Z,1.40
2022-11-25T05:54:45.979Z,1.80
2022-11-25T05:59:48.465Z,1.90
2022-11-25T06:04:56.997Z,2.00
2022-11-25T06:10:03.122Z,1.90
2022-11-25T06:15:08.550Z,1.80
2022-11-25T06:20:12.025Z,2.00
2022-11-25T06:25:14.709Z,1.98
2022-11-25T06:30:18.664Z,2.60
2022-11-25T06:35:31.331Z,3.25
2022-11-25T06:40:37.093Z,2.13
2022-11-25T06:45:39.276Z,2.75
2022-11-25T06:50:41.535Z,2.03
2022-11-25T06:55:43.671Z,1.73
2022-11-25T07:00:46.023Z,2.78
2022-11-25T07:05:48.233Z,1.70
2022-11-25T07:10:50.830Z,2.03
2022-11-25T07:15:53.005Z,1.65
2022-11-25T07:20:55.135Z,1.45
2022-11-25T07:26:02.724Z,1.40
2022-11-25T07:31:31.039Z,2.20
2022-11-25T07:36:35.166Z,2.10
2022-11-25T07:41:38.429Z,1.30
2022-11-25T07:46:43.823Z,1.75
2022-11-25T07:51:51.339Z,1.83
2022-11-25T07:56:53.750Z,1.67
2022-11-25T08:01:56.611Z,2.05
2022-11-25T08:06:59.095Z,2.50
2022-11-25T08:12:01.382Z,3.40
2022-11-25T08:17:06.122Z,2.92
2022-11-25T08:22:08.471Z,2.30
2022-11-25T08:27:10.740Z,2.25
2022-11-25T08:32:12.922Z,2.38
2022-11-25T08:37:15.065Z,2.22
2022-11-25T08:42:17.319Z,2.83
2022-11-25T08:47:19.568Z,3.00
2022-11-25T08:52:22.640Z,2.58
2022-11-25T08:57:24.867Z,2.70
2022-11-25T09:02:27.494Z,3.10
2022-11-25T09:07:30.997Z,2.22
2022-11-25T09:12:33.422Z,2.30
2022-11-25T09:17:37.452Z,2.40
2022-11-25T09:22:39.690Z,2.15
2022-11-25T09:27:41.926Z,2.58
2022-11-25T09:32:44.764Z,2.28
2022-11-25T09:37:47.147Z,2.55
2022-11-25T09:43:20.387Z,2.35
2022-11-25T09:48:37.923Z,2.15
2022-11-25T09:53:47.642Z,2.15
2022-11-25T09:59:07.377Z,2.10
2022-11-25T10:04:27.188Z,2.08
2022-11-25T10:09:34.033Z,2.40
2022-11-25T10:14:47.195Z,1.83
2022-11-25T10:19:55.740Z,1.80
2022-11-25T10:25:22.994Z,2.03
2022-11-25T10:30:47.293Z,2.08
2022-11-25T10:35:53.641Z,1.98
2022-11-25T10:40:56.640Z,2.17
2022-11-25T10:46:08.045Z,2.55
2022-11-25T10:51:29.432Z,2.10
2022-11-25T10:56:41.876Z,2.38
2022-11-25T11:01:44.424Z,2.28
2022-11-25T11:06:49.983Z,2.00
2022-11-25T11:11:52.146Z,2.13
2022-11-25T11:16:56.558Z,2.13
2022-11-25T11:22:16.450Z,2.53
2022-11-25T11:27:24.816Z,2.33
2022-11-25T11:32:29.214Z,2.30
2022-11-25T11:37:47.524Z,2.63
2022-11-25T11:43:03.563Z,2.45
2022-11-25T11:48:37.796Z,1.98
2022-11-25T11:53:58.077Z,1.80
2022-11-25T11:59:27.740Z,2.28
2022-11-25T12:04:41.811Z,2.45
2022-11-25T12:09:56.003Z,1.85
2022-11-25T12:15:12.030Z,1.40
2022-11-25T12:20:52.702Z,1.45
2022-11-25T12:26:01.736Z,1.23
2022-11-25T12:31:19.380Z,1.40
2022-11-25T12:36:44.201Z,1.25
2022-11-25T12:42:06.173Z,1.20
2022-11-25T12:47:11.225Z,1.33
2022-11-25T12:52:32.411Z,1.17
2022-11-25T12:58:05.322Z,1.50
2022-11-25T13:03:33.779Z,1.63
2022-11-25T13:08:57.105Z,1.17
2022-11-25T13:14:22.095Z,1.45
2022-11-25T13:19:24.717Z,1.52
2022-11-25T13:24:41.506Z,1.85
2022-11-25T13:29:43.610Z,1.30
2022-11-25T13:34:45.801Z,1.50
2022-11-25T13:39:47.986Z,1.33
2022-11-25T13:44:58.720Z,1.10
2022-11-25T13:50:21.778Z,1.25
2022-11-25T13:55:35.318Z,1.15
2022-11-25T14:00:37.518Z,1.70
2022-11-25T14:06:09.021Z,1.58
2022-11-25T14:11:11.277Z,1.30
2022-11-25T14:16:19.654Z,1.50
2022-11-25T14:21:55.443Z,1.60
2022-11-25T14:27:00.103Z,2.73
2022-11-25T14:32:14.906Z,1.73
2022-11-25T14:37:26.086Z,1.80
2022-11-25T14:42:34.938Z,1.20
2022-11-25T14:47:39.247Z,1.50
2022-11-25T14:52:44.223Z,1.60
2022-11-25T14:57:46.728Z,1.95
2022-11-25T15:03:17.946Z,1.70
2022-11-25T15:08:22.218Z,1.83
2022-11-25T15:13:39.841Z,2.13
2022-11-25T15:18:54.933Z,2.08
2022-11-25T15:23:57.640Z,1.98
2022-11-25T15:29:13.910Z,2.25
2022-11-25T15:34:20.119Z,1.80
2022-11-25T15:39:27.643Z,2.15
2022-11-25T15:44:40.752Z,2.10
2022-11-25T15:49:57.246Z,1.85
2022-11-25T15:55:08.092Z,1.77
2022-11-25T16:00:23.323Z,1.90
2022-11-25T16:05:31.773Z,2.20
2022-11-25T16:10:55.767Z,1.80
2022-11-25T16:16:18.839Z,1.60
2022-11-25T16:21:32.957Z,2.03
2022-11-25T16:26:50.630Z,1.80
2022-11-25T16:31:52.978Z,1.92
2022-11-25T16:36:55.385Z,2.58
2022-11-25T16:42:02.581Z,2.70
2022-11-25T16:47:04.890Z,2.92
2022-11-25T16:52:07.159Z,3.22
2022-11-25T16:57:27.553Z,2.80
2022-11-25T17:02:30.021Z,3.60
2022-11-25T17:07:33.704Z,3.03
2022-11-25T17:12:38.030Z,3.17
2022-11-25T17:17:40.400Z,2.30
2022-11-25T17:22:42.700Z,2.35
2022-11-25T17:27:47.974Z,3.08
2022-11-25T17:33:00.952Z,3.08
2022-11-25T17:38:12.256Z,2.65
2022-11-25T17:43:20.204Z,4.50
2022-11-25T17:48:22.452Z,7.72
2022-11-25T17:53:25.015Z,6.85
2022-11-25T17:58:27.300Z,7.88
2022-11-25T18:03:29.546Z,9.05
2022-11-25T18:08:31.744Z,10.02
2022-11-25T18:13:38.719Z,26.33
2022-11-25T18:18:40.914Z,34.63
2022-11-25T18:23:43.883Z,29.83
2022-11-25T18:28:46.227Z,25.30
2022-11-25T18:33:48.418Z,25.48
2022-11-25T18:38:51.577Z,28.95
2022-11-25T18:43:54.002Z,20.65
2022-11-25T18:48:56.489Z,14.88
2022-11-25T18:53:58.681Z,18.45
2022-11-25T18:59:02.035Z,32.63
2022-11-25T19:04:04.565Z,19.67
2022-11-25T19:09:06.931Z,16.48
2022-11-25T19:14:34.305Z,13.38
2022-11-25T19:19:38.021Z,11.32
2022-11-25T19:24:40.294Z,10.13
2022-11-25T19:29:42.650Z,10.18
2022-11-25T19:34:47.987Z,7.60
2022-11-25T19:39:52.025Z,7.75
2022-11-25T19:44:54.244Z,9.40
2022-11-25T19:50:00.695Z,9.52
2022-11-25T19:55:20.384Z,9.32
2022-11-25T20:00:23.866Z,8.93
2022-11-25T20:05:35.248Z,8.48
2022-11-25T20:10:37.683Z,10.27
2022-11-25T20:15:41.230Z,8.77
2022-11-25T20:20:44.433Z,6.10
2022-11-25T20:25:48.918Z,6.25
2022-11-25T20:30:52.445Z,6.82
2022-11-25T20:36:06.597Z,6.07
2022-11-25T20:41:12.304Z,6.75
2022-11-25T20:46:26.338Z,6.50
2022-11-25T20:51:28.557Z,7.60
2022-11-25T20:56:30.798Z,9.70
2022-11-25T21:01:33.026Z,10.77
2022-11-25T21:06:40.824Z,13.80
2022-11-25T21:11:43.409Z,12.25
2022-11-25T21:16:46.819Z,11.40
2022-11-25T21:21:50.771Z,9.40
2022-11-25T21:26:53.104Z,9.85
2022-11-25T21:31:55.531Z,7.90
2022-11-25T21:36:58.999Z,10.32
2022-11-25T21:42:04.790Z,13.63
2022-11-25T21:52:20.428Z,8.25
2022-11-25T21:57:27.375Z,6.93
2022-11-25T22:02:30.452Z,9.05
2022-11-25T22:07:32.836Z,8.52
2022-11-25T22:12:41.007Z,10.68
2022-11-25T22:17:44.797Z,9.27
2022-11-25T22:22:47.107Z,9.85
2022-11-25T22:27:49.870Z,11.25
2022-11-25T22:33:03.548Z,11.30
2022-11-25T22:38:17.552Z,11.52
2022-11-25T22:43:25.197Z,11.05
2022-11-25T22:48:32.325Z,9.00
2022-11-25T22:53:34.500Z,8.10
2022-11-25T22:58:36.855Z,5.43
2022-11-25T23:03:39.096Z,5.13
2022-11-25T23:08:41.313Z,4.30
2022-11-25T23:13:43.784Z,4.95
2022-11-25T23:18:46.948Z,6.30
2022-11-25T23:23:49.395Z,5.82
2022-11-25T23:28:51.712Z,6.05
2022-11-25T23:33:54.112Z,5.97
2022-11-25T23:38:59.181Z,5.97
2022-11-25T23:44:31.789Z,5.03
2022-11-25T23:49:45.141Z,3.80
2022-11-25T23:54:48.835Z,3.45
2022-11-25T23:59:52.044Z,4.93
